sensor_id;sensor_type;location;lat;lon;timestamp;P1;durP1;ratioP1;P2;durP2;ratioP2
69754;SDS011;57023;52.218;5.158;2023-02-13T00:01:36;21.92;;;13.85;;
69754;SDS011;57023;52.218;5.158;2023-02-13T00:04:01;22.00;;;13.38;;
69754;SDS011;57023;52.218;5.158;2023-02-13T00:06:28;24.83;;;14.23;;
69754;SDS011;57023;52.218;5.158;2023-02-13T00:08:53;22.67;;;13.23;;
69754;SDS011;57023;52.218;5.158;2023-02-13T00:11:18;22.33;;;13.85;;
69754;SDS011;57023;52.218;5.158;2023-02-13T00:13:44;22.88;;;14.50;;
69754;SDS011;57023;52.218;5.158;2023-02-13T00:16:09;20.80;;;13.75;;
69754;SDS011;57023;52.218;5.158;2023-02-13T00:18:35;22.63;;;14.25;;
69754;SDS011;57023;52.218;5.158;2023-02-13T00:21:03;22.98;;;14.07;;
69754;SDS011;57023;52.218;5.158;2023-02-13T00:23:31;21.50;;;13.68;;
69754;SDS011;57023;52.218;5.158;2023-02-13T00:25:57;20.58;;;13.55;;
69754;SDS011;57023;52.218;5.158;2023-02-13T00:28:23;22.92;;;14.18;;
69754;SDS011;57023;52.218;5.158;2023-02-13T00:30:48;21.45;;;13.77;;
69754;SDS011;57023;52.218;5.158;2023-02-13T00:33:14;23.23;;;13.60;;
69754;SDS011;57023;52.218;5.158;2023-02-13T00:35:39;22.13;;;13.95;;
69754;SDS011;57023;52.218;5.158;2023-02-13T00:38:04;21.20;;;12.95;;
69754;SDS011;57023;52.218;5.158;2023-02-13T00:40:30;23.08;;;14.50;;
69754;SDS011;57023;52.218;5.158;2023-02-13T00:42:55;23.25;;;13.85;;
69754;SDS011;57023;52.218;5.158;2023-02-13T00:45:20;22.63;;;14.27;;
69754;SDS011;57023;52.218;5.158;2023-02-13T00:47:46;22.75;;;13.88;;
69754;SDS011;57023;52.218;5.158;2023-02-13T00:50:11;22.60;;;13.63;;
69754;SDS011;57023;52.218;5.158;2023-02-13T00:52:36;22.52;;;14.07;;
69754;SDS011;57023;52.218;5.158;2023-02-13T00:55:02;24.95;;;14.07;;
69754;SDS011;57023;52.218;5.158;2023-02-13T00:57:27;22.45;;;14.07;;
69754;SDS011;57023;52.218;5.158;2023-02-13T00:59:54;23.98;;;14.45;;
69754;SDS011;57023;52.218;5.158;2023-02-13T01:02:19;22.77;;;14.07;;
69754;SDS011;57023;52.218;5.158;2023-02-13T01:04:45;22.40;;;14.27;;
69754;SDS011;57023;52.218;5.158;2023-02-13T01:07:10;22.15;;;14.77;;
69754;SDS011;57023;52.218;5.158;2023-02-13T01:09:35;24.30;;;14.15;;
69754;SDS011;57023;52.218;5.158;2023-02-13T01:12:01;22.77;;;14.57;;
69754;SDS011;57023;52.218;5.158;2023-02-13T01:14:26;22.67;;;14.23;;
69754;SDS011;57023;52.218;5.158;2023-02-13T01:16:51;21.85;;;13.57;;
69754;SDS011;57023;52.218;5.158;2023-02-13T01:19:17;24.85;;;15.05;;
69754;SDS011;57023;52.218;5.158;2023-02-13T01:21:42;25.17;;;14.88;;
69754;SDS011;57023;52.218;5.158;2023-02-13T01:24:08;22.88;;;14.68;;
69754;SDS011;57023;52.218;5.158;2023-02-13T01:26:33;22.75;;;14.55;;
69754;SDS011;57023;52.218;5.158;2023-02-13T01:28:58;21.95;;;14.13;;
69754;SDS011;57023;52.218;5.158;2023-02-13T01:31:24;21.98;;;14.50;;
69754;SDS011;57023;52.218;5.158;2023-02-13T01:33:50;24.58;;;14.35;;
69754;SDS011;57023;52.218;5.158;2023-02-13T01:36:15;23.77;;;14.57;;
69754;SDS011;57023;52.218;5.158;2023-02-13T01:38:41;22.50;;;14.23;;
69754;SDS011;57023;52.218;5.158;2023-02-13T01:41:07;24.10;;;14.75;;
69754;SDS011;57023;52.218;5.158;2023-02-13T01:46:37;24.48;;;14.82;;
69754;SDS011;57023;52.218;5.158;2023-02-13T01:49:09;25.30;;;14.13;;
69754;SDS011;57023;52.218;5.158;2023-02-13T01:51:37;23.27;;;14.55;;
69754;SDS011;57023;52.218;5.158;2023-02-13T01:54:13;23.33;;;14.13;;
69754;SDS011;57023;52.218;5.158;2023-02-13T01:56:44;23.73;;;14.93;;
69754;SDS011;57023;52.218;5.158;2023-02-13T01:59:14;23.80;;;15.18;;
69754;SDS011;57023;52.218;5.158;2023-02-13T02:01:42;24.05;;;14.90;;
69754;SDS011;57023;52.218;5.158;2023-02-13T02:04:21;21.77;;;14.02;;
69754;SDS011;57023;52.218;5.158;2023-02-13T02:06:56;23.48;;;14.05;;
69754;SDS011;57023;52.218;5.158;2023-02-13T02:09:34;23.13;;;14.38;;
69754;SDS011;57023;52.218;5.158;2023-02-13T02:12:10;22.83;;;13.38;;
69754;SDS011;57023;52.218;5.158;2023-02-13T02:14:41;22.35;;;14.35;;
69754;SDS011;57023;52.218;5.158;2023-02-13T02:17:07;22.38;;;14.55;;
69754;SDS011;57023;52.218;5.158;2023-02-13T02:25:15;22.10;;;13.15;;
69754;SDS011;57023;52.218;5.158;2023-02-13T02:28:20;24.05;;;13.85;;
69754;SDS011;57023;52.218;5.158;2023-02-13T02:34:07;20.38;;;12.88;;
69754;SDS011;57023;52.218;5.158;2023-02-13T02:40:13;21.67;;;12.27;;
69754;SDS011;57023;52.218;5.158;2023-02-13T02:42:28;21.85;;;12.70;;
69754;SDS011;57023;52.218;5.158;2023-02-13T02:47:58;20.70;;;12.18;;
69754;SDS011;57023;52.218;5.158;2023-02-13T02:53:31;21.05;;;12.80;;
69754;SDS011;57023;52.218;5.158;2023-02-13T02:58:36;22.13;;;12.88;;
69754;SDS011;57023;52.218;5.158;2023-02-13T03:01:21;20.75;;;12.90;;
69754;SDS011;57023;52.218;5.158;2023-02-13T03:04:51;19.00;;;12.18;;
69754;SDS011;57023;52.218;5.158;2023-02-13T03:07:17;21.42;;;12.75;;
69754;SDS011;57023;52.218;5.158;2023-02-13T03:09:56;21.15;;;12.65;;
69754;SDS011;57023;52.218;5.158;2023-02-13T03:12:44;22.00;;;12.50;;
69754;SDS011;57023;52.218;5.158;2023-02-13T03:15:31;21.20;;;12.73;;
69754;SDS011;57023;52.218;5.158;2023-02-13T03:17:57;20.65;;;12.23;;
69754;SDS011;57023;52.218;5.158;2023-02-13T03:23:47;20.48;;;11.85;;
69754;SDS011;57023;52.218;5.158;2023-02-13T03:26:28;19.80;;;12.07;;
69754;SDS011;57023;52.218;5.158;2023-02-13T03:29:19;19.55;;;12.35;;
69754;SDS011;57023;52.218;5.158;2023-02-13T03:32:22;21.27;;;12.88;;
69754;SDS011;57023;52.218;5.158;2023-02-13T03:34:53;20.52;;;11.82;;
69754;SDS011;57023;52.218;5.158;2023-02-13T03:37:44;19.13;;;11.63;;
69754;SDS011;57023;52.218;5.158;2023-02-13T03:40:22;21.77;;;13.07;;
69754;SDS011;57023;52.218;5.158;2023-02-13T03:43:13;20.80;;;12.05;;
69754;SDS011;57023;52.218;5.158;2023-02-13T03:45:40;18.70;;;12.15;;
69754;SDS011;57023;52.218;5.158;2023-02-13T03:48:18;20.40;;;12.32;;
69754;SDS011;57023;52.218;5.158;2023-02-13T03:51:05;22.02;;;12.50;;
69754;SDS011;57023;52.218;5.158;2023-02-13T03:53:32;21.27;;;12.27;;
69754;SDS011;57023;52.218;5.158;2023-02-13T03:55:58;19.70;;;12.23;;
69754;SDS011;57023;52.218;5.158;2023-02-13T03:58:49;20.10;;;11.77;;
69754;SDS011;57023;52.218;5.158;2023-02-13T04:01:35;19.63;;;11.88;;
69754;SDS011;57023;52.218;5.158;2023-02-13T04:04:07;18.27;;;11.55;;
69754;SDS011;57023;52.218;5.158;2023-02-13T04:06:36;17.70;;;11.20;;
69754;SDS011;57023;52.218;5.158;2023-02-13T04:09:06;19.80;;;12.05;;
69754;SDS011;57023;52.218;5.158;2023-02-13T04:11:33;19.08;;;11.82;;
69754;SDS011;57023;52.218;5.158;2023-02-13T04:14:06;21.35;;;11.93;;
69754;SDS011;57023;52.218;5.158;2023-02-13T04:19:04;20.08;;;12.65;;
69754;SDS011;57023;52.218;5.158;2023-02-13T04:21:31;22.08;;;12.68;;
69754;SDS011;57023;52.218;5.158;2023-02-13T04:23:57;18.73;;;12.15;;
69754;SDS011;57023;52.218;5.158;2023-02-13T04:26:23;18.92;;;11.90;;
69754;SDS011;57023;52.218;5.158;2023-02-13T04:28:48;20.63;;;11.93;;
69754;SDS011;57023;52.218;5.158;2023-02-13T04:31:13;19.00;;;11.52;;
69754;SDS011;57023;52.218;5.158;2023-02-13T04:33:39;20.20;;;12.25;;
69754;SDS011;57023;52.218;5.158;2023-02-13T04:36:04;20.02;;;11.55;;
69754;SDS011;57023;52.218;5.158;2023-02-13T04:38:30;19.48;;;11.65;;
69754;SDS011;57023;52.218;5.158;2023-02-13T04:40:55;20.35;;;11.55;;
69754;SDS011;57023;52.218;5.158;2023-02-13T04:43:20;19.73;;;11.40;;
69754;SDS011;57023;52.218;5.158;2023-02-13T04:45:48;20.90;;;12.40;;
69754;SDS011;57023;52.218;5.158;2023-02-13T04:48:14;20.38;;;12.05;;
69754;SDS011;57023;52.218;5.158;2023-02-13T04:50:39;21.02;;;12.10;;
69754;SDS011;57023;52.218;5.158;2023-02-13T04:53:05;20.60;;;12.40;;
69754;SDS011;57023;52.218;5.158;2023-02-13T04:55:30;19.70;;;11.82;;
69754;SDS011;57023;52.218;5.158;2023-02-13T04:57:55;20.60;;;12.18;;
69754;SDS011;57023;52.218;5.158;2023-02-13T05:00:21;19.65;;;12.00;;
69754;SDS011;57023;52.218;5.158;2023-02-13T05:02:47;19.50;;;11.57;;
69754;SDS011;57023;52.218;5.158;2023-02-13T05:05:12;21.13;;;11.60;;
69754;SDS011;57023;52.218;5.158;2023-02-13T05:07:38;19.85;;;11.73;;
69754;SDS011;57023;52.218;5.158;2023-02-13T05:10:03;19.25;;;11.70;;
69754;SDS011;57023;52.218;5.158;2023-02-13T05:12:29;20.75;;;11.98;;
69754;SDS011;57023;52.218;5.158;2023-02-13T05:14:54;18.58;;;10.98;;
69754;SDS011;57023;52.218;5.158;2023-02-13T05:17:19;20.50;;;11.32;;
69754;SDS011;57023;52.218;5.158;2023-02-13T05:19:45;22.50;;;12.15;;
69754;SDS011;57023;52.218;5.158;2023-02-13T05:22:10;19.70;;;11.20;;
69754;SDS011;57023;52.218;5.158;2023-02-13T05:24:54;21.33;;;11.75;;
69754;SDS011;57023;52.218;5.158;2023-02-13T05:27:19;19.80;;;11.70;;
69754;SDS011;57023;52.218;5.158;2023-02-13T05:29:45;19.20;;;11.50;;
69754;SDS011;57023;52.218;5.158;2023-02-13T05:32:10;20.27;;;11.70;;
69754;SDS011;57023;52.218;5.158;2023-02-13T05:34:35;21.17;;;11.80;;
69754;SDS011;57023;52.218;5.158;2023-02-13T05:37:01;19.90;;;11.48;;
69754;SDS011;57023;52.218;5.158;2023-02-13T05:39:26;20.20;;;11.15;;
69754;SDS011;57023;52.218;5.158;2023-02-13T05:41:51;20.75;;;11.88;;
69754;SDS011;57023;52.218;5.158;2023-02-13T05:44:17;21.05;;;11.25;;
69754;SDS011;57023;52.218;5.158;2023-02-13T05:46:42;19.83;;;11.15;;
69754;SDS011;57023;52.218;5.158;2023-02-13T05:49:09;20.95;;;11.60;;
69754;SDS011;57023;52.218;5.158;2023-02-13T05:51:35;19.15;;;11.57;;
69754;SDS011;57023;52.218;5.158;2023-02-13T05:54:00;21.88;;;11.85;;
69754;SDS011;57023;52.218;5.158;2023-02-13T05:56:26;20.98;;;10.95;;
69754;SDS011;57023;52.218;5.158;2023-02-13T05:58:52;21.00;;;11.95;;
69754;SDS011;57023;52.218;5.158;2023-02-13T06:01:18;21.63;;;12.10;;
69754;SDS011;57023;52.218;5.158;2023-02-13T06:03:43;25.95;;;14.05;;
69754;SDS011;57023;52.218;5.158;2023-02-13T06:06:09;29.58;;;16.27;;
69754;SDS011;57023;52.218;5.158;2023-02-13T06:08:34;28.45;;;17.13;;
69754;SDS011;57023;52.218;5.158;2023-02-13T06:11:00;26.55;;;15.48;;
69754;SDS011;57023;52.218;5.158;2023-02-13T06:13:25;24.02;;;13.18;;
69754;SDS011;57023;52.218;5.158;2023-02-13T06:15:51;22.42;;;13.43;;
69754;SDS011;57023;52.218;5.158;2023-02-13T06:18:16;22.70;;;13.23;;
69754;SDS011;57023;52.218;5.158;2023-02-13T06:20:41;21.95;;;13.00;;
69754;SDS011;57023;52.218;5.158;2023-02-13T06:23:07;21.25;;;11.77;;
69754;SDS011;57023;52.218;5.158;2023-02-13T06:25:35;19.25;;;11.73;;
69754;SDS011;57023;52.218;5.158;2023-02-13T06:28:01;19.92;;;11.15;;
69754;SDS011;57023;52.218;5.158;2023-02-13T06:30:27;19.17;;;11.13;;
69754;SDS011;57023;52.218;5.158;2023-02-13T06:32:53;19.17;;;10.70;;
69754;SDS011;57023;52.218;5.158;2023-02-13T06:35:18;18.73;;;10.70;;
69754;SDS011;57023;52.218;5.158;2023-02-13T06:37:44;20.10;;;11.32;;
69754;SDS011;57023;52.218;5.158;2023-02-13T06:40:10;20.30;;;11.80;;
69754;SDS011;57023;52.218;5.158;2023-02-13T06:42:36;20.73;;;11.40;;
69754;SDS011;57023;52.218;5.158;2023-02-13T06:45:02;20.05;;;11.10;;
69754;SDS011;57023;52.218;5.158;2023-02-13T06:47:27;20.70;;;11.88;;
69754;SDS011;57023;52.218;5.158;2023-02-13T06:49:53;20.80;;;12.45;;
69754;SDS011;57023;52.218;5.158;2023-02-13T06:52:18;19.98;;;11.45;;
69754;SDS011;57023;52.218;5.158;2023-02-13T06:54:44;18.92;;;11.32;;
69754;SDS011;57023;52.218;5.158;2023-02-13T06:57:09;19.60;;;11.57;;
69754;SDS011;57023;52.218;5.158;2023-02-13T06:59:34;21.00;;;11.73;;
69754;SDS011;57023;52.218;5.158;2023-02-13T07:01:59;20.95;;;11.48;;
69754;SDS011;57023;52.218;5.158;2023-02-13T07:04:26;18.52;;;11.40;;
69754;SDS011;57023;52.218;5.158;2023-02-13T07:06:53;21.33;;;11.80;;
69754;SDS011;57023;52.218;5.158;2023-02-13T07:11:44;19.13;;;11.00;;
69754;SDS011;57023;52.218;5.158;2023-02-13T07:14:09;21.33;;;12.10;;
69754;SDS011;57023;52.218;5.158;2023-02-13T07:16:35;20.02;;;12.23;;
69754;SDS011;57023;52.218;5.158;2023-02-13T07:19:00;21.20;;;11.80;;
69754;SDS011;57023;52.218;5.158;2023-02-13T07:21:25;20.52;;;12.43;;
69754;SDS011;57023;52.218;5.158;2023-02-13T07:23:51;21.08;;;12.32;;
69754;SDS011;57023;52.218;5.158;2023-02-13T07:26:16;22.92;;;12.40;;
69754;SDS011;57023;52.218;5.158;2023-02-13T07:28:41;21.17;;;11.95;;
69754;SDS011;57023;52.218;5.158;2023-02-13T07:31:07;19.80;;;11.70;;
69754;SDS011;57023;52.218;5.158;2023-02-13T07:33:35;22.13;;;12.35;;
69754;SDS011;57023;52.218;5.158;2023-02-13T07:36:00;23.35;;;12.50;;
69754;SDS011;57023;52.218;5.158;2023-02-13T07:38:27;21.02;;;12.00;;
69754;SDS011;57023;52.218;5.158;2023-02-13T07:40:53;19.75;;;11.80;;
69754;SDS011;57023;52.218;5.158;2023-02-13T07:43:18;19.52;;;12.10;;
69754;SDS011;57023;52.218;5.158;2023-02-13T07:45:44;20.88;;;11.93;;
69754;SDS011;57023;52.218;5.158;2023-02-13T07:48:10;20.55;;;12.35;;
69754;SDS011;57023;52.218;5.158;2023-02-13T07:50:36;20.67;;;12.13;;
69754;SDS011;57023;52.218;5.158;2023-02-13T07:53:01;21.63;;;12.10;;
69754;SDS011;57023;52.218;5.158;2023-02-13T07:55:27;19.45;;;11.98;;
69754;SDS011;57023;52.218;5.158;2023-02-13T07:57:53;20.10;;;12.00;;
69754;SDS011;57023;52.218;5.158;2023-02-13T08:00:19;21.70;;;12.32;;
69754;SDS011;57023;52.218;5.158;2023-02-13T08:02:45;20.67;;;12.15;;
69754;SDS011;57023;52.218;5.158;2023-02-13T08:05:10;20.27;;;12.55;;
69754;SDS011;57023;52.218;5.158;2023-02-13T08:07:36;22.30;;;12.40;;
69754;SDS011;57023;52.218;5.158;2023-02-13T08:10:01;22.30;;;12.57;;
69754;SDS011;57023;52.218;5.158;2023-02-13T08:12:45;19.65;;;12.30;;
69754;SDS011;57023;52.218;5.158;2023-02-13T08:15:11;22.58;;;12.73;;
69754;SDS011;57023;52.218;5.158;2023-02-13T08:17:39;21.98;;;13.27;;
69754;SDS011;57023;52.218;5.158;2023-02-13T08:20:04;21.55;;;12.73;;
69754;SDS011;57023;52.218;5.158;2023-02-13T08:22:34;21.10;;;12.35;;
69754;SDS011;57023;52.218;5.158;2023-02-13T08:25:00;21.77;;;12.80;;
69754;SDS011;57023;52.218;5.158;2023-02-13T08:27:25;21.23;;;12.30;;
69754;SDS011;57023;52.218;5.158;2023-02-13T08:29:52;24.13;;;13.35;;
69754;SDS011;57023;52.218;5.158;2023-02-13T08:32:17;22.13;;;12.55;;
69754;SDS011;57023;52.218;5.158;2023-02-13T08:34:42;20.55;;;12.85;;
69754;SDS011;57023;52.218;5.158;2023-02-13T08:37:07;23.48;;;13.10;;
69754;SDS011;57023;52.218;5.158;2023-02-13T08:39:33;20.67;;;12.88;;
69754;SDS011;57023;52.218;5.158;2023-02-13T08:41:58;23.23;;;13.85;;
69754;SDS011;57023;52.218;5.158;2023-02-13T08:44:25;22.40;;;14.10;;
69754;SDS011;57023;52.218;5.158;2023-02-13T08:46:50;21.48;;;13.27;;
69754;SDS011;57023;52.218;5.158;2023-02-13T08:49:16;22.45;;;13.02;;
69754;SDS011;57023;52.218;5.158;2023-02-13T08:51:41;21.95;;;12.95;;
69754;SDS011;57023;52.218;5.158;2023-02-13T08:54:06;22.38;;;14.02;;
69754;SDS011;57023;52.218;5.158;2023-02-13T08:56:32;26.15;;;14.88;;
69754;SDS011;57023;52.218;5.158;2023-02-13T08:58:57;22.02;;;13.60;;
69754;SDS011;57023;52.218;5.158;2023-02-13T09:01:22;22.83;;;13.07;;
69754;SDS011;57023;52.218;5.158;2023-02-13T09:03:48;21.17;;;13.25;;
69754;SDS011;57023;52.218;5.158;2023-02-13T09:06:13;20.90;;;12.98;;
69754;SDS011;57023;52.218;5.158;2023-02-13T09:08:39;22.33;;;13.30;;
69754;SDS011;57023;52.218;5.158;2023-02-13T09:11:04;20.60;;;12.80;;
69754;SDS011;57023;52.218;5.158;2023-02-13T09:13:31;20.75;;;13.02;;
69754;SDS011;57023;52.218;5.158;2023-02-13T09:15:58;22.50;;;13.02;;
69754;SDS011;57023;52.218;5.158;2023-02-13T09:18:25;18.92;;;12.80;;
69754;SDS011;57023;52.218;5.158;2023-02-13T09:20:55;18.75;;;12.18;;
69754;SDS011;57023;52.218;5.158;2023-02-13T09:23:24;21.50;;;13.30;;
69754;SDS011;57023;52.218;5.158;2023-02-13T09:25:50;20.98;;;11.68;;
69754;SDS011;57023;52.218;5.158;2023-02-13T09:28:15;18.88;;;12.07;;
69754;SDS011;57023;52.218;5.158;2023-02-13T09:30:40;19.23;;;11.80;;
69754;SDS011;57023;52.218;5.158;2023-02-13T09:33:08;19.40;;;12.73;;
69754;SDS011;57023;52.218;5.158;2023-02-13T09:35:34;21.02;;;12.68;;
69754;SDS011;57023;52.218;5.158;2023-02-13T09:38:00;18.98;;;11.80;;
69754;SDS011;57023;52.218;5.158;2023-02-13T09:40:34;18.52;;;11.60;;
69754;SDS011;57023;52.218;5.158;2023-02-13T09:43:04;20.00;;;11.35;;
69754;SDS011;57023;52.218;5.158;2023-02-13T09:45:37;18.08;;;11.63;;
69754;SDS011;57023;52.218;5.158;2023-02-13T09:48:03;16.35;;;11.15;;
69754;SDS011;57023;52.218;5.158;2023-02-13T09:50:30;17.93;;;11.40;;
69754;SDS011;57023;52.218;5.158;2023-02-13T09:52:57;19.30;;;12.13;;
69754;SDS011;57023;52.218;5.158;2023-02-13T10:06:46;18.33;;;11.80;;
69754;SDS011;57023;52.218;5.158;2023-02-13T10:14:53;17.00;;;11.63;;
69754;SDS011;57023;52.218;5.158;2023-02-13T10:17:31;16.52;;;11.60;;
69754;SDS011;57023;52.218;5.158;2023-02-13T10:22:50;16.88;;;11.75;;
69754;SDS011;57023;52.218;5.158;2023-02-13T10:25:31;16.20;;;10.95;;
69754;SDS011;57023;52.218;5.158;2023-02-13T10:28:05;15.65;;;11.15;;
69754;SDS011;57023;52.218;5.158;2023-02-13T10:30:38;16.35;;;11.80;;
69754;SDS011;57023;52.218;5.158;2023-02-13T10:33:15;15.80;;;11.55;;
69754;SDS011;57023;52.218;5.158;2023-02-13T10:35:51;15.77;;;11.20;;
69754;SDS011;57023;52.218;5.158;2023-02-13T10:38:19;16.02;;;11.68;;
69754;SDS011;57023;52.218;5.158;2023-02-13T10:41:04;16.60;;;11.98;;
69754;SDS011;57023;52.218;5.158;2023-02-13T10:43:44;15.82;;;11.50;;
69754;SDS011;57023;52.218;5.158;2023-02-13T10:54:58;15.25;;;11.63;;
69754;SDS011;57023;52.218;5.158;2023-02-13T11:02:59;16.63;;;12.07;;
69754;SDS011;57023;52.218;5.158;2023-02-13T11:05:29;14.82;;;10.57;;
69754;SDS011;57023;52.218;5.158;2023-02-13T11:08:00;14.95;;;10.38;;
69754;SDS011;57023;52.218;5.158;2023-02-13T11:10:27;14.43;;;10.27;;
69754;SDS011;57023;52.218;5.158;2023-02-13T11:12:52;14.77;;;10.23;;
69754;SDS011;57023;52.218;5.158;2023-02-13T11:15:22;15.60;;;10.10;;
69754;SDS011;57023;52.218;5.158;2023-02-13T11:17:51;14.88;;;10.20;;
69754;SDS011;57023;52.218;5.158;2023-02-13T11:22:52;15.27;;;10.93;;
69754;SDS011;57023;52.218;5.158;2023-02-13T11:25:22;14.77;;;10.95;;
69754;SDS011;57023;52.218;5.158;2023-02-13T11:27:50;14.70;;;10.45;;
69754;SDS011;57023;52.218;5.158;2023-02-13T11:30:30;13.55;;;10.13;;
69754;SDS011;57023;52.218;5.158;2023-02-13T11:35:35;13.68;;;9.88;;
69754;SDS011;57023;52.218;5.158;2023-02-13T11:40:51;12.52;;;9.48;;
69754;SDS011;57023;52.218;5.158;2023-02-13T11:43:48;12.15;;;9.13;;
69754;SDS011;57023;52.218;5.158;2023-02-13T11:48:40;12.97;;;9.03;;
69754;SDS011;57023;52.218;5.158;2023-02-13T11:51:07;12.65;;;9.20;;
69754;SDS011;57023;52.218;5.158;2023-02-13T11:53:35;12.60;;;9.52;;
69754;SDS011;57023;52.218;5.158;2023-02-13T11:56:12;13.50;;;9.55;;
69754;SDS011;57023;52.218;5.158;2023-02-13T11:58:39;12.13;;;9.20;;
69754;SDS011;57023;52.218;5.158;2023-02-13T12:01:10;13.07;;;9.07;;
69754;SDS011;57023;52.218;5.158;2023-02-13T12:03:36;12.02;;;9.00;;
69754;SDS011;57023;52.218;5.158;2023-02-13T12:06:12;12.10;;;8.90;;
69754;SDS011;57023;52.218;5.158;2023-02-13T12:08:43;14.23;;;9.38;;
69754;SDS011;57023;52.218;5.158;2023-02-13T12:11:20;12.65;;;9.35;;
69754;SDS011;57023;52.218;5.158;2023-02-13T12:13:47;14.20;;;9.82;;
69754;SDS011;57023;52.218;5.158;2023-02-13T12:16:20;12.10;;;9.30;;
69754;SDS011;57023;52.218;5.158;2023-02-13T12:18:53;11.60;;;9.15;;
69754;SDS011;57023;52.218;5.158;2023-02-13T12:24:03;11.15;;;8.75;;
69754;SDS011;57023;52.218;5.158;2023-02-13T12:26:42;11.73;;;9.20;;
69754;SDS011;57023;52.218;5.158;2023-02-13T12:32:13;11.43;;;9.10;;
69754;SDS011;57023;52.218;5.158;2023-02-13T12:48:07;11.73;;;8.63;;
69754;SDS011;57023;52.218;5.158;2023-02-13T13:01:41;11.23;;;7.80;;
69754;SDS011;57023;52.218;5.158;2023-02-13T13:04:19;10.15;;;8.38;;
69754;SDS011;57023;52.218;5.158;2023-02-13T13:09:37;12.60;;;8.18;;
69754;SDS011;57023;52.218;5.158;2023-02-13T13:12:15;10.25;;;8.38;;
69754;SDS011;57023;52.218;5.158;2023-02-13T13:22:57;10.73;;;8.32;;
69754;SDS011;57023;52.218;5.158;2023-02-13T13:25:33;11.55;;;9.13;;
69754;SDS011;57023;52.218;5.158;2023-02-13T13:28:03;10.35;;;8.23;;
69754;SDS011;57023;52.218;5.158;2023-02-13T13:30:36;11.93;;;8.90;;
69754;SDS011;57023;52.218;5.158;2023-02-13T13:33:03;10.80;;;8.13;;
69754;SDS011;57023;52.218;5.158;2023-02-13T13:35:56;11.65;;;8.43;;
69754;SDS011;57023;52.218;5.158;2023-02-13T13:38:33;11.05;;;8.68;;
69754;SDS011;57023;52.218;5.158;2023-02-13T13:41:04;11.98;;;9.05;;
69754;SDS011;57023;52.218;5.158;2023-02-13T13:43:49;10.65;;;8.80;;
69754;SDS011;57023;52.218;5.158;2023-02-13T13:52:28;10.70;;;8.45;;
69754;SDS011;57023;52.218;5.158;2023-02-13T13:54:55;13.07;;;9.18;;
69754;SDS011;57023;52.218;5.158;2023-02-13T13:57:23;10.95;;;9.07;;
69754;SDS011;57023;52.218;5.158;2023-02-13T13:59:59;11.82;;;9.20;;
69754;SDS011;57023;52.218;5.158;2023-02-13T14:02:51;11.18;;;8.70;;
69754;SDS011;57023;52.218;5.158;2023-02-13T14:06:11;10.40;;;8.38;;
69754;SDS011;57023;52.218;5.158;2023-02-13T14:11:04;10.47;;;8.33;;
69754;SDS011;57023;52.218;5.158;2023-02-13T14:13:37;10.87;;;8.10;;
69754;SDS011;57023;52.218;5.158;2023-02-13T14:16:04;11.10;;;8.68;;
69754;SDS011;57023;52.218;5.158;2023-02-13T14:18:32;10.73;;;8.52;;
69754;SDS011;57023;52.218;5.158;2023-02-13T14:20:59;10.77;;;8.43;;
69754;SDS011;57023;52.218;5.158;2023-02-13T14:28:34;10.60;;;8.23;;
69754;SDS011;57023;52.218;5.158;2023-02-13T14:31:07;9.85;;;7.55;;
69754;SDS011;57023;52.218;5.158;2023-02-13T14:33:40;10.80;;;8.70;;
69754;SDS011;57023;52.218;5.158;2023-02-13T14:36:07;10.70;;;8.85;;
69754;SDS011;57023;52.218;5.158;2023-02-13T14:38:40;11.80;;;8.75;;
69754;SDS011;57023;52.218;5.158;2023-02-13T14:41:22;11.25;;;8.88;;
69754;SDS011;57023;52.218;5.158;2023-02-13T14:44:10;10.00;;;7.93;;
69754;SDS011;57023;52.218;5.158;2023-02-13T14:46:44;10.82;;;8.95;;
69754;SDS011;57023;52.218;5.158;2023-02-13T14:49:13;11.35;;;9.05;;
69754;SDS011;57023;52.218;5.158;2023-02-13T14:51:45;10.70;;;8.48;;
69754;SDS011;57023;52.218;5.158;2023-02-13T14:54:15;10.10;;;7.95;;
69754;SDS011;57023;52.218;5.158;2023-02-13T14:56:45;10.60;;;7.40;;
69754;SDS011;57023;52.218;5.158;2023-02-13T14:59:13;9.73;;;7.80;;
69754;SDS011;57023;52.218;5.158;2023-02-13T15:02:07;10.77;;;8.30;;
69754;SDS011;57023;52.218;5.158;2023-02-13T15:04:47;9.80;;;8.07;;
69754;SDS011;57023;52.218;5.158;2023-02-13T15:07:21;11.18;;;8.27;;
69754;SDS011;57023;52.218;5.158;2023-02-13T15:09:50;12.65;;;8.35;;
69754;SDS011;57023;52.218;5.158;2023-02-13T15:12:29;12.50;;;8.90;;
69754;SDS011;57023;52.218;5.158;2023-02-13T15:14:56;11.10;;;8.77;;
69754;SDS011;57023;52.218;5.158;2023-02-13T15:17:23;11.55;;;8.57;;
69754;SDS011;57023;52.218;5.158;2023-02-13T15:19:52;10.77;;;8.68;;
69754;SDS011;57023;52.218;5.158;2023-02-13T15:22:37;11.70;;;8.65;;
69754;SDS011;57023;52.218;5.158;2023-02-13T15:25:05;10.00;;;8.30;;
69754;SDS011;57023;52.218;5.158;2023-02-13T15:27:33;11.38;;;8.38;;
69754;SDS011;57023;52.218;5.158;2023-02-13T15:30:04;11.75;;;8.65;;
69754;SDS011;57023;52.218;5.158;2023-02-13T15:32:42;11.27;;;9.05;;
69754;SDS011;57023;52.218;5.158;2023-02-13T15:37:47;12.00;;;8.20;;
69754;SDS011;57023;52.218;5.158;2023-02-13T15:40:13;12.38;;;9.02;;
69754;SDS011;57023;52.218;5.158;2023-02-13T15:42:49;13.43;;;9.38;;
69754;SDS011;57023;52.218;5.158;2023-02-13T15:45:15;12.25;;;8.75;;
69754;SDS011;57023;52.218;5.158;2023-02-13T15:47:43;11.82;;;8.70;;
69754;SDS011;57023;52.218;5.158;2023-02-13T15:50:21;11.52;;;8.55;;
69754;SDS011;57023;52.218;5.158;2023-02-13T15:52:51;12.43;;;9.13;;
69754;SDS011;57023;52.218;5.158;2023-02-13T15:55:21;12.55;;;9.40;;
69754;SDS011;57023;52.218;5.158;2023-02-13T15:57:50;11.25;;;8.82;;
69754;SDS011;57023;52.218;5.158;2023-02-13T16:00:31;12.27;;;8.48;;
69754;SDS011;57023;52.218;5.158;2023-02-13T16:02:58;11.57;;;8.65;;
69754;SDS011;57023;52.218;5.158;2023-02-13T16:05:27;12.50;;;9.13;;
69754;SDS011;57023;52.218;5.158;2023-02-13T16:07:55;12.50;;;8.75;;
69754;SDS011;57023;52.218;5.158;2023-02-13T16:10:26;13.35;;;9.45;;
69754;SDS011;57023;52.218;5.158;2023-02-13T16:12:56;14.35;;;9.43;;
69754;SDS011;57023;52.218;5.158;2023-02-13T16:17:49;12.40;;;9.23;;
69754;SDS011;57023;52.218;5.158;2023-02-13T16:20:16;12.65;;;9.40;;
69754;SDS011;57023;52.218;5.158;2023-02-13T16:25:21;14.15;;;10.15;;
69754;SDS011;57023;52.218;5.158;2023-02-13T16:27:50;13.48;;;9.75;;
69754;SDS011;57023;52.218;5.158;2023-02-13T16:32:50;13.45;;;9.52;;
69754;SDS011;57023;52.218;5.158;2023-02-13T16:37:51;13.93;;;9.43;;
69754;SDS011;57023;52.218;5.158;2023-02-13T16:42:51;16.63;;;11.07;;
69754;SDS011;57023;52.218;5.158;2023-02-13T16:45:20;15.73;;;10.50;;
69754;SDS011;57023;52.218;5.158;2023-02-13T16:47:47;16.25;;;10.23;;
69754;SDS011;57023;52.218;5.158;2023-02-13T16:50:13;16.52;;;10.60;;
69754;SDS011;57023;52.218;5.158;2023-02-13T16:52:40;17.08;;;11.65;;
69754;SDS011;57023;52.218;5.158;2023-02-13T16:55:12;18.00;;;11.38;;
69754;SDS011;57023;52.218;5.158;2023-02-13T16:57:38;15.23;;;10.02;;
69754;SDS011;57023;52.218;5.158;2023-02-13T17:00:06;16.63;;;11.90;;
69754;SDS011;57023;52.218;5.158;2023-02-13T17:02:44;19.63;;;13.60;;
69754;SDS011;57023;52.218;5.158;2023-02-13T17:07:41;18.75;;;12.45;;
69754;SDS011;57023;52.218;5.158;2023-02-13T17:12:51;18.83;;;12.82;;